sensor_id;sensor_type;location;lat;lon;timestamp;temperature;humidity
20162;DHT22;51382;53.180;15.414;2023-02-08T00:09:49;-2.60;99.90
20162;DHT22;51382;53.180;15.414;2023-02-08T00:25:04;-2.70;99.90
20162;DHT22;51382;53.180;15.414;2023-02-08T00:40:16;-3.00;99.90
20162;DHT22;51382;53.180;15.414;2023-02-08T00:55:22;-2.90;99.90
20162;DHT22;51382;53.180;15.414;2023-02-08T01:10:29;-2.90;99.90
20162;DHT22;51382;53.180;15.414;2023-02-08T01:25:43;-3.00;99.90
20162;DHT22;51382;53.180;15.414;2023-02-08T01:40:57;-3.30;99.90
20162;DHT22;51382;53.180;15.414;2023-02-08T01:56:14;-3.10;99.90
20162;DHT22;51382;53.180;15.414;2023-02-08T02:11:24;-3.60;99.90
20162;DHT22;51382;53.180;15.414;2023-02-08T02:26:44;-3.90;99.90
20162;DHT22;51382;53.180;15.414;2023-02-08T02:42:04;-3.90;99.90
20162;DHT22;51382;53.180;15.414;2023-02-08T02:57:38;-4.00;99.90
20162;DHT22;51382;53.180;15.414;2023-02-08T03:12:52;-4.00;99.90
20162;DHT22;51382;53.180;15.414;2023-02-08T03:28:04;-4.00;99.90
20162;DHT22;51382;53.180;15.414;2023-02-08T03:43:25;-4.30;99.90
20162;DHT22;51382;53.180;15.414;2023-02-08T03:58:42;-4.40;99.90
20162;DHT22;51382;53.180;15.414;2023-02-08T04:13:59;-4.20;99.90
20162;DHT22;51382;53.180;15.414;2023-02-08T04:29:06;-3.90;99.90
20162;DHT22;51382;53.180;15.414;2023-02-08T04:44:19;-3.70;99.90
20162;DHT22;51382;53.180;15.414;2023-02-08T04:59:31;-3.70;99.90
20162;DHT22;51382;53.180;15.414;2023-02-08T05:14:42;-3.80;99.90
20162;DHT22;51382;53.180;15.414;2023-02-08T05:29:53;-3.50;99.90
20162;DHT22;51382;53.180;15.414;2023-02-08T05:44:59;-3.40;99.90
20162;DHT22;51382;53.180;15.414;2023-02-08T06:00:12;-3.40;99.90
20162;DHT22;51382;53.180;15.414;2023-02-08T06:15:24;-3.40;99.90
20162;DHT22;51382;53.180;15.414;2023-02-08T06:30:36;-3.40;99.90
20162;DHT22;51382;53.180;15.414;2023-02-08T06:45:48;-3.50;99.90
20162;DHT22;51382;53.180;15.414;2023-02-08T07:01:02;-3.40;99.90
20162;DHT22;51382;53.180;15.414;2023-02-08T07:16:13;-1.30;99.90
20162;DHT22;51382;53.180;15.414;2023-02-08T07:31:25;0.20;99.90
20162;DHT22;51382;53.180;15.414;2023-02-08T07:46:36;0.90;99.90
20162;DHT22;51382;53.180;15.414;2023-02-08T08:01:48;3.40;99.90
20162;DHT22;51382;53.180;15.414;2023-02-08T08:16:59;3.90;99.90
20162;DHT22;51382;53.180;15.414;2023-02-08T08:32:10;4.20;99.90
20162;DHT22;51382;53.180;15.414;2023-02-08T08:47:22;0.00;99.90
20162;DHT22;51382;53.180;15.414;2023-02-08T09:02:33;4.50;99.90
20162;DHT22;51382;53.180;15.414;2023-02-08T09:17:45;-0.40;99.90
20162;DHT22;51382;53.180;15.414;2023-02-08T09:32:56;-0.40;99.90
20162;DHT22;51382;53.180;15.414;2023-02-08T09:48:12;-0.50;99.90
20162;DHT22;51382;53.180;15.414;2023-02-08T10:03:30;0.00;99.90
20162;DHT22;51382;53.180;15.414;2023-02-08T10:18:42;0.10;99.90
20162;DHT22;51382;53.180;15.414;2023-02-08T10:34:01;-0.20;99.90
20162;DHT22;51382;53.180;15.414;2023-02-08T10:49:16;-0.40;99.90
20162;DHT22;51382;53.180;15.414;2023-02-08T11:04:35;-0.50;99.90
20162;DHT22;51382;53.180;15.414;2023-02-08T11:20:18;-0.40;99.90
20162;DHT22;51382;53.180;15.414;2023-02-08T11:35:28;-0.50;99.90
20162;DHT22;51382;53.180;15.414;2023-02-08T11:50:36;-0.40;99.90
20162;DHT22;51382;53.180;15.414;2023-02-08T12:05:49;0.60;99.90
20162;DHT22;51382;53.180;15.414;2023-02-08T12:21:21;0.60;99.90
20162;DHT22;51382;53.180;15.414;2023-02-08T12:36:36;0.80;99.90
20162;DHT22;51382;53.180;15.414;2023-02-08T12:51:58;0.80;99.90
20162;DHT22;51382;53.180;15.414;2023-02-08T13:07:24;1.00;99.90
20162;DHT22;51382;53.180;15.414;2023-02-08T13:22:40;1.10;99.90
20162;DHT22;51382;53.180;15.414;2023-02-08T13:37:53;1.20;99.90
20162;DHT22;51382;53.180;15.414;2023-02-08T13:53:03;1.50;99.90
20162;DHT22;51382;53.180;15.414;2023-02-08T14:08:18;1.40;99.90
20162;DHT22;51382;53.180;15.414;2023-02-08T14:23:35;1.50;99.90
20162;DHT22;51382;53.180;15.414;2023-02-08T14:39:03;1.40;99.90
20162;DHT22;51382;53.180;15.414;2023-02-08T14:54:32;1.30;99.90
20162;DHT22;51382;53.180;15.414;2023-02-08T15:09:47;1.20;99.90
20162;DHT22;51382;53.180;15.414;2023-02-08T15:25:10;1.10;99.90
20162;DHT22;51382;53.180;15.414;2023-02-08T15:40:28;0.80;99.90
20162;DHT22;51382;53.180;15.414;2023-02-08T15:55:44;0.40;99.90
20162;DHT22;51382;53.180;15.414;2023-02-08T16:10:57;0.10;99.90
20162;DHT22;51382;53.180;15.414;2023-02-08T16:26:11;0.10;99.90
20162;DHT22;51382;53.180;15.414;2023-02-08T16:41:45;0.10;99.90
20162;DHT22;51382;53.180;15.414;2023-02-08T16:57:12;0.00;99.90
20162;DHT22;51382;53.180;15.414;2023-02-08T17:12:18;0.00;99.90
20162;DHT22;51382;53.180;15.414;2023-02-08T17:27:34;-0.10;99.90
20162;DHT22;51382;53.180;15.414;2023-02-08T17:42:46;-0.20;99.90
20162;DHT22;51382;53.180;15.414;2023-02-08T17:57:59;-0.30;99.90
20162;DHT22;51382;53.180;15.414;2023-02-08T18:13:11;-0.40;99.90
20162;DHT22;51382;53.180;15.414;2023-02-08T18:28:24;-0.50;99.90
20162;DHT22;51382;53.180;15.414;2023-02-08T18:43:32;-0.50;99.90
20162;DHT22;51382;53.180;15.414;2023-02-08T18:58:39;-0.60;99.90
20162;DHT22;51382;53.180;15.414;2023-02-08T19:13:55;-0.70;99.90
20162;DHT22;51382;53.180;15.414;2023-02-08T19:29:10;-0.80;99.90
20162;DHT22;51382;53.180;15.414;2023-02-08T19:44:26;-0.90;99.90
20162;DHT22;51382;53.180;15.414;2023-02-08T19:59:39;-1.20;99.90
20162;DHT22;51382;53.180;15.414;2023-02-08T20:14:52;-1.30;99.90
20162;DHT22;51382;53.180;15.414;2023-02-08T20:30:05;-1.30;99.90
20162;DHT22;51382;53.180;15.414;2023-02-08T20:45:14;-1.30;99.90
20162;DHT22;51382;53.180;15.414;2023-02-08T21:00:30;-1.30;99.90
20162;DHT22;51382;53.180;15.414;2023-02-08T21:15:42;-1.30;99.90
20162;DHT22;51382;53.180;15.414;2023-02-08T21:30:54;-1.50;99.90
20162;DHT22;51382;53.180;15.414;2023-02-08T21:46:11;-1.60;99.90
20162;DHT22;51382;53.180;15.414;2023-02-08T22:01:18;-1.60;99.90
20162;DHT22;51382;53.180;15.414;2023-02-08T22:16:30;-1.70;99.90
20162;DHT22;51382;53.180;15.414;2023-02-08T22:31:42;-1.70;99.90
20162;DHT22;51382;53.180;15.414;2023-02-08T22:46:49;-2.00;99.90
20162;DHT22;51382;53.180;15.414;2023-02-08T23:02:01;-2.10;99.90
20162;DHT22;51382;53.180;15.414;2023-02-08T23:17:13;-2.50;99.90
20162;DHT22;51382;53.180;15.414;2023-02-08T23:32:29;-2.60;99.90
20162;DHT22;51382;53.180;15.414;2023-02-08T23:47:36;-2.50;99.90
